createdAt,value
2018-03-15T00:02:57.867Z,90.39
2018-03-15T00:06:03.450Z,90.47
2018-03-15T00:09:12.933Z,90.51
2018-03-15T00:12:23.752Z,90.66
2018-03-15T00:15:34.570Z,90.49
2018-03-15T00:18:45.501Z,90.63
2018-03-15T00:21:56.685Z,90.52
2018-03-15T00:25:06.336Z,90.55
2018-03-15T00:28:16.002Z,90.59
2018-03-15T00:31:25.420Z,90.65
2018-03-15T00:34:34.755Z,90.65
2018-03-15T00:37:43.168Z,90.60
2018-03-15T00:40:50.382Z,90.68
2018-03-15T00:43:55.914Z,90.65
2018-03-15T00:47:01.450Z,90.67
2018-03-15T00:50:06.945Z,90.62
2018-03-15T00:53:12.501Z,90.58
2018-03-15T00:56:17.840Z,90.52
2018-03-15T00:59:23.365Z,90.60
2018-03-15T01:02:28.976Z,90.60
2018-03-15T01:05:34.529Z,90.56
2018-03-15T01:08:40.083Z,90.49
2018-03-15T01:11:45.503Z,90.57
2018-03-15T01:14:51.029Z,90.48
2018-03-15T01:17:56.598Z,90.45
2018-03-15T01:21:02.128Z,90.39
2018-03-15T01:24:07.661Z,90.45
2018-03-15T01:27:13.269Z,90.39
2018-03-15T01:30:18.804Z,90.40
2018-03-15T01:33:24.348Z,90.44
2018-03-15T01:36:29.877Z,90.46
2018-03-15T01:39:35.416Z,90.43
2018-03-15T01:42:40.996Z,90.47
2018-03-15T01:45:46.599Z,90.64
2018-03-15T01:48:52.093Z,90.60
2018-03-15T01:51:57.668Z,90.67
2018-03-15T01:55:03.408Z,90.52
2018-03-15T01:58:08.932Z,90.42
2018-03-15T02:01:14.502Z,90.46
2018-03-15T02:04:20.060Z,90.48
2018-03-15T02:07:25.638Z,90.51
2018-03-15T02:10:33.664Z,90.52
2018-03-15T02:13:39.249Z,90.47
2018-03-15T02:16:44.893Z,90.42
2018-03-15T02:19:50.605Z,90.47
2018-03-15T02:22:56.173Z,90.50
2018-03-15T02:26:01.681Z,90.42
2018-03-15T02:29:07.241Z,90.36
2018-03-15T02:32:12.758Z,90.24
2018-03-15T02:35:18.324Z,90.08
2018-03-15T02:38:23.865Z,90.21
2018-03-15T02:41:29.402Z,90.61
2018-03-15T02:44:34.944Z,90.53
2018-03-15T02:47:40.473Z,90.54
2018-03-15T02:50:45.971Z,90.27
2018-03-15T02:53:51.932Z,90.56
2018-03-15T02:56:57.429Z,90.25
2018-03-15T03:00:02.966Z,90.22
2018-03-15T03:03:08.256Z,90.18
2018-03-15T03:06:15.058Z,90.38
2018-03-15T03:09:22.224Z,90.36
2018-03-15T03:12:28.589Z,90.25
2018-03-15T03:15:34.193Z,90.29
2018-03-15T03:18:40.349Z,90.28
2018-03-15T03:21:46.338Z,90.16
2018-03-15T03:24:51.911Z,90.29
2018-03-15T03:27:57.449Z,90.36
2018-03-15T03:31:02.994Z,90.47
2018-03-15T03:34:08.532Z,90.51
2018-03-15T03:37:14.032Z,90.53
2018-03-15T03:40:19.593Z,90.46
2018-03-15T03:43:25.089Z,90.15
2018-03-15T03:46:30.622Z,90.03
2018-03-15T03:49:36.177Z,90.26
2018-03-15T03:52:41.759Z,90.31
2018-03-15T03:55:47.301Z,90.09
2018-03-15T03:58:52.837Z,90.14
2018-03-15T04:01:58.427Z,90.12
2018-03-15T04:05:03.975Z,90.11
2018-03-15T04:08:09.473Z,90.22
2018-03-15T04:11:14.774Z,90.03
2018-03-15T04:14:20.262Z,90.02
2018-03-15T04:17:25.879Z,89.97
2018-03-15T04:20:34.492Z,89.97
2018-03-15T04:23:40.177Z,89.80
2018-03-15T04:26:45.729Z,89.80
2018-03-15T04:29:51.263Z,89.88
2018-03-15T04:32:56.882Z,90.02
2018-03-15T04:36:02.435Z,90.08
2018-03-15T04:39:07.975Z,89.71
2018-03-15T04:42:13.545Z,89.81
2018-03-15T04:45:19.121Z,89.92
2018-03-15T04:48:24.627Z,89.90
2018-03-15T04:51:30.200Z,90.03
2018-03-15T04:54:35.683Z,90.04
2018-03-15T05:00:51.894Z,90.11
2018-03-15T05:03:57.478Z,90.08
2018-03-15T05:07:02.985Z,90.01
2018-03-15T05:10:08.544Z,89.97
2018-03-15T05:13:14.310Z,90.00
2018-03-15T05:16:19.879Z,89.89
2018-03-15T05:19:25.393Z,89.54
2018-03-15T05:22:30.942Z,89.66
2018-03-15T05:25:36.434Z,89.84
2018-03-15T05:28:42.024Z,90.01
2018-03-15T05:31:47.515Z,89.97
2018-03-15T05:34:55.861Z,90.03
2018-03-15T05:38:01.524Z,90.14
2018-03-15T05:41:07.021Z,90.24
2018-03-15T05:44:13.634Z,90.40
2018-03-15T05:47:20.654Z,90.30
2018-03-15T05:50:28.153Z,90.00
2018-03-15T05:53:39.289Z,89.89
2018-03-15T05:56:45.361Z,89.93
2018-03-15T05:59:55.375Z,90.07
2018-03-15T06:03:00.865Z,89.82
2018-03-15T06:06:06.430Z,89.71
2018-03-15T06:09:11.998Z,89.84
2018-03-15T06:12:17.525Z,89.82
2018-03-15T06:15:23.060Z,90.03
2018-03-15T06:18:28.632Z,90.24
2018-03-15T06:21:34.120Z,90.20
2018-03-15T06:24:39.660Z,89.96
2018-03-15T06:27:45.161Z,89.56
2018-03-15T06:30:50.726Z,89.79
2018-03-15T06:33:56.524Z,89.86
2018-03-15T06:37:02.077Z,89.91
2018-03-15T06:40:10.294Z,89.67
2018-03-15T06:43:15.793Z,89.62
2018-03-15T06:46:21.366Z,89.83
2018-03-15T06:49:26.962Z,89.65
2018-03-15T06:52:32.492Z,89.58
2018-03-15T06:55:38.034Z,89.92
2018-03-15T06:58:43.569Z,89.89
2018-03-15T07:01:49.113Z,89.93
2018-03-15T07:04:54.624Z,89.95
2018-03-15T07:08:00.418Z,90.14
2018-03-15T07:11:08.029Z,90.19
2018-03-15T07:14:13.572Z,90.22
2018-03-15T07:17:19.111Z,90.18
2018-03-15T07:20:24.673Z,90.24
2018-03-15T07:23:30.200Z,90.34
2018-03-15T07:26:35.733Z,90.42
2018-03-15T07:29:41.320Z,90.50
2018-03-15T07:32:46.865Z,90.38
2018-03-15T07:35:53.873Z,90.43
2018-03-15T07:39:03.413Z,90.46
2018-03-15T07:42:08.953Z,90.58
2018-03-15T07:45:14.448Z,90.62
2018-03-15T07:48:19.990Z,90.64
2018-03-15T07:51:25.479Z,90.67
2018-03-15T07:54:31.032Z,90.57
2018-03-15T07:57:36.529Z,90.71
2018-03-15T08:00:42.057Z,90.60
2018-03-15T08:03:47.541Z,90.57
2018-03-15T08:06:53.089Z,90.57
2018-03-15T08:09:58.577Z,90.55
2018-03-15T08:13:04.362Z,90.67
2018-03-15T08:16:09.900Z,90.62
2018-03-15T08:19:15.521Z,90.59
2018-03-15T08:22:21.066Z,90.68
2018-03-15T08:25:26.612Z,90.69
2018-03-15T08:28:32.321Z,90.91
2018-03-15T08:31:37.872Z,90.69
2018-03-15T08:34:43.382Z,90.86
2018-03-15T08:37:48.948Z,90.84
2018-03-15T08:40:54.263Z,90.81
2018-03-15T08:43:59.821Z,90.83
2018-03-15T08:47:05.368Z,90.98
2018-03-15T08:50:10.934Z,90.91
2018-03-15T08:53:16.443Z,90.84
2018-03-15T08:56:21.980Z,90.91
2018-03-15T08:59:27.517Z,90.93
2018-03-15T09:02:33.072Z,90.88
2018-03-15T09:05:38.663Z,90.91
2018-03-15T09:08:44.378Z,90.87
2018-03-15T09:11:49.942Z,90.97
2018-03-15T09:14:55.533Z,91.03
2018-03-15T09:18:01.188Z,91.04
2018-03-15T09:21:06.938Z,91.13
2018-03-15T09:24:12.582Z,91.21
2018-03-15T09:27:18.269Z,91.33
2018-03-15T09:30:23.958Z,91.29
2018-03-15T09:33:29.825Z,91.25
2018-03-15T09:36:35.569Z,91.32
2018-03-15T09:39:41.264Z,91.30
2018-03-15T09:42:47.114Z,91.36
2018-03-15T09:45:52.729Z,91.36
2018-03-15T09:48:58.985Z,91.32
2018-03-15T09:52:04.920Z,91.37
2018-03-15T09:55:10.737Z,91.19
2018-03-15T09:58:16.361Z,91.22
2018-03-15T10:01:22.211Z,91.20
2018-03-15T10:04:28.190Z,91.21
2018-03-15T10:07:33.787Z,91.14
2018-03-15T10:10:39.611Z,91.19
2018-03-15T10:13:45.661Z,91.02
2018-03-15T10:16:51.301Z,90.94
2018-03-15T10:19:57.073Z,91.00
2018-03-15T10:23:03.179Z,90.99
2018-03-15T10:26:11.010Z,91.08
2018-03-15T10:29:16.912Z,90.97
2018-03-15T10:32:22.609Z,91.03
2018-03-15T10:35:29.118Z,91.01
2018-03-15T10:38:34.855Z,91.05
2018-03-15T10:41:40.591Z,91.16
2018-03-15T10:44:46.369Z,91.08
2018-03-15T10:47:52.426Z,90.96
2018-03-15T10:50:57.921Z,90.92
2018-03-15T10:54:03.668Z,90.93
2018-03-15T10:57:09.424Z,90.87
2018-03-15T11:00:15.395Z,90.79
2018-03-15T11:03:26.938Z,90.81
2018-03-15T11:06:38.101Z,90.78
2018-03-15T11:09:44.534Z,90.67
2018-03-15T11:12:50.259Z,90.46
2018-03-15T11:15:56.165Z,90.71
2018-03-15T11:19:02.080Z,90.70
2018-03-15T11:22:07.903Z,90.71
2018-03-15T11:25:14.254Z,90.92
2018-03-15T11:28:21.962Z,90.91
2018-03-15T11:31:27.698Z,90.78
2018-03-15T11:34:33.450Z,90.76
2018-03-15T11:37:39.181Z,90.84
2018-03-15T11:40:44.874Z,90.52
2018-03-15T11:43:50.582Z,90.65
2018-03-15T11:46:56.462Z,90.74
2018-03-15T11:50:02.089Z,90.51
2018-03-15T11:53:07.786Z,90.47
2018-03-15T11:56:13.905Z,90.53
2018-03-15T11:59:19.822Z,90.52
2018-03-15T12:02:25.454Z,90.56
2018-03-15T12:05:31.170Z,90.61
2018-03-15T12:08:36.856Z,90.41
2018-03-15T12:11:42.674Z,90.56
2018-03-15T12:14:48.389Z,90.13
2018-03-15T12:17:54.128Z,90.24
2018-03-15T12:20:59.734Z,90.34
2018-03-15T12:24:05.585Z,90.09
2018-03-15T12:27:11.270Z,90.30
2018-03-15T12:30:17.035Z,90.51
2018-03-15T12:33:22.655Z,90.30
2018-03-15T12:36:29.883Z,90.00
2018-03-15T12:39:35.947Z,89.79
2018-03-15T12:42:41.709Z,89.88
2018-03-15T12:45:47.512Z,90.20
2018-03-15T12:48:53.494Z,89.82
2018-03-15T12:51:59.153Z,90.20
2018-03-15T12:55:04.965Z,90.27
2018-03-15T12:58:10.638Z,90.18
2018-03-15T13:01:16.470Z,90.35
2018-03-15T13:04:29.175Z,90.25
2018-03-15T13:07:35.022Z,90.17
2018-03-15T13:10:40.605Z,90.30
2018-03-15T13:13:46.299Z,90.20
2018-03-15T13:16:52.008Z,90.06
2018-03-15T13:19:57.750Z,89.97
2018-03-15T13:23:03.709Z,89.95
2018-03-15T13:26:09.441Z,90.07
2018-03-15T13:29:16.034Z,89.98
2018-03-15T13:32:21.726Z,89.82
2018-03-15T13:35:27.496Z,89.77
2018-03-15T13:38:33.316Z,89.79
2018-03-15T13:41:38.853Z,89.73
2018-03-15T13:44:44.547Z,89.67
2018-03-15T13:47:50.315Z,89.92
2018-03-15T13:50:56.271Z,89.97
2018-03-15T13:54:02.019Z,89.96
2018-03-15T13:57:07.746Z,90.03
2018-03-15T14:00:13.291Z,89.45
2018-03-15T14:03:18.905Z,89.43
2018-03-15T14:06:24.616Z,89.67
2018-03-15T14:09:30.197Z,89.25
2018-03-15T14:12:36.036Z,89.70
2018-03-15T14:15:41.747Z,89.67
2018-03-15T14:18:47.603Z,89.35
2018-03-15T14:21:53.444Z,89.68
2018-03-15T14:24:59.497Z,89.64
2018-03-15T14:28:05.181Z,89.82
2018-03-15T14:31:10.852Z,89.65
2018-03-15T14:34:16.497Z,89.71
2018-03-15T14:37:22.294Z,89.56
2018-03-15T14:40:28.138Z,89.70
2018-03-15T14:43:36.342Z,89.62
2018-03-15T14:46:42.300Z,89.76
2018-03-15T14:49:48.176Z,89.75
2018-03-15T14:52:53.888Z,89.52
2018-03-15T14:55:59.445Z,89.51
2018-03-15T14:59:05.054Z,89.86
2018-03-15T15:02:10.752Z,89.65
2018-03-15T15:05:16.470Z,89.40
2018-03-15T15:08:22.057Z,89.49
2018-03-15T15:11:34.986Z,89.51
2018-03-15T15:14:40.700Z,89.70
2018-03-15T15:17:46.741Z,89.04
2018-03-15T15:20:52.380Z,89.08
2018-03-15T15:23:58.152Z,89.20
2018-03-15T15:27:03.680Z,89.28
2018-03-15T15:30:09.382Z,89.26
2018-03-15T15:33:15.095Z,88.85
2018-03-15T15:36:20.863Z,89.33
2018-03-15T15:39:26.506Z,89.21
2018-03-15T15:42:32.319Z,89.11
2018-03-15T15:45:37.979Z,89.32
2018-03-15T15:48:43.686Z,89.35
2018-03-15T15:51:50.023Z,89.37
2018-03-15T15:54:56.179Z,89.40
2018-03-15T15:58:01.851Z,89.40
2018-03-15T16:01:07.438Z,89.27
2018-03-15T16:04:13.158Z,89.26
2018-03-15T16:07:20.073Z,88.88
2018-03-15T16:10:25.741Z,88.73
2018-03-15T16:13:35.241Z,88.88
2018-03-15T16:16:40.990Z,88.77
2018-03-15T16:19:47.653Z,88.86
2018-03-15T16:22:53.384Z,88.42
2018-03-15T16:26:01.011Z,89.02
2018-03-15T16:29:06.597Z,89.08
2018-03-15T16:32:12.363Z,88.98
2018-03-15T16:35:19.702Z,88.57
2018-03-15T16:38:25.354Z,88.87
2018-03-15T16:41:32.101Z,88.66
2018-03-15T16:44:48.110Z,88.87
2018-03-15T16:48:01.924Z,89.08
2018-03-15T16:51:17.338Z,89.34
2018-03-15T16:54:40.275Z,88.97
2018-03-15T17:01:42.103Z,88.71
2018-03-15T17:05:03.225Z,88.89
2018-03-15T17:11:54.759Z,88.85
2018-03-15T17:15:18.728Z,89.00
2018-03-15T17:18:35.023Z,89.08
2018-03-15T17:21:49.940Z,89.04
2018-03-15T17:25:18.990Z,89.16
2018-03-15T17:28:40.985Z,88.95
2018-03-15T17:35:40.200Z,88.88
2018-03-15T17:38:57.765Z,88.84
2018-03-15T17:42:17.577Z,88.82
2018-03-15T17:45:35.183Z,88.30
2018-03-15T17:48:59.738Z,88.88
2018-03-15T17:52:15.597Z,88.94
2018-03-15T17:55:28.811Z,88.93
2018-03-15T17:58:50.043Z,88.72
2018-03-15T18:02:10.515Z,88.69
2018-03-15T18:08:56.070Z,88.67
2018-03-15T18:12:22.750Z,88.52
2018-03-15T18:19:12.174Z,88.62
2018-03-15T18:22:27.322Z,88.55
2018-03-15T18:25:34.836Z,88.49
2018-03-15T18:28:40.589Z,88.22
2018-03-15T18:31:46.235Z,88.34
2018-03-15T18:34:55.484Z,88.21
2018-03-15T18:38:02.932Z,88.23
2018-03-15T18:41:08.759Z,88.81
2018-03-15T18:44:17.046Z,88.58
2018-03-15T18:47:23.118Z,88.43
2018-03-15T18:50:28.725Z,88.49
2018-03-15T18:53:36.488Z,88.13
2018-03-15T18:56:42.298Z,88.46
2018-03-15T18:59:48.767Z,88.46
2018-03-15T19:02:59.886Z,88.38
2018-03-15T19:06:09.751Z,88.67
2018-03-15T19:09:23.755Z,88.57
2018-03-15T19:12:38.836Z,88.59
2018-03-15T19:15:57.179Z,88.42
2018-03-15T19:19:17.326Z,88.07
2018-03-15T19:22:33.275Z,88.34
2018-03-15T19:25:49.591Z,88.02
2018-03-15T19:29:06.587Z,88.17
2018-03-15T19:32:22.431Z,88.22
2018-03-15T19:35:31.780Z,88.27
2018-03-15T19:38:47.766Z,88.03
2018-03-15T19:42:10.362Z,87.86
2018-03-15T19:45:17.246Z,88.06
2018-03-15T19:48:33.677Z,88.24
2018-03-15T19:51:53.915Z,88.05
2018-03-15T19:55:13.178Z,88.35
2018-03-15T19:58:27.255Z,88.10
2018-03-15T20:01:48.259Z,87.97
2018-03-15T20:05:02.808Z,87.89
2018-03-15T20:08:17.656Z,87.86
2018-03-15T20:11:27.009Z,87.74
2018-03-15T20:14:46.352Z,88.08
2018-03-15T20:18:05.462Z,88.15
2018-03-15T20:21:17.654Z,87.81
2018-03-15T20:24:32.462Z,87.68
2018-03-15T20:27:49.228Z,87.81
2018-03-15T20:31:00.964Z,87.81
2018-03-15T20:34:10.030Z,87.97
2018-03-15T20:37:19.459Z,87.81
2018-03-15T20:40:35.543Z,87.59
2018-03-15T20:43:43.698Z,87.50
2018-03-15T20:47:03.676Z,87.60
2018-03-15T20:50:17.394Z,87.81
2018-03-15T20:53:28.630Z,88.13
2018-03-15T20:56:52.273Z,87.93
2018-03-15T21:00:19.648Z,87.65
2018-03-15T21:03:52.158Z,87.90
2018-03-15T21:11:12.740Z,87.96
2018-03-15T21:14:53.464Z,87.95
2018-03-15T21:18:26.574Z,88.04
2018-03-15T21:21:58.795Z,88.04
2018-03-15T21:25:31.196Z,87.62
2018-03-15T21:28:46.025Z,87.77
2018-03-15T21:31:52.519Z,87.95
2018-03-15T21:34:59.499Z,87.85
2018-03-15T21:38:05.457Z,88.13
2018-03-15T21:41:11.229Z,88.07
2018-03-15T21:44:16.895Z,87.88
2018-03-15T21:47:22.553Z,87.87
2018-03-15T21:50:30.824Z,88.04
2018-03-15T21:53:36.638Z,87.96
2018-03-15T21:56:42.381Z,87.92
2018-03-15T21:59:47.803Z,87.72
2018-03-15T22:02:53.128Z,87.90
2018-03-15T22:05:58.766Z,87.96
2018-03-15T22:09:03.994Z,87.62
2018-03-15T22:12:09.897Z,87.42
2018-03-15T22:15:15.644Z,87.43
2018-03-15T22:18:21.345Z,87.53
2018-03-15T22:21:26.946Z,87.31
2018-03-15T22:24:32.582Z,87.74
2018-03-15T22:27:38.029Z,87.60
2018-03-15T22:30:43.398Z,87.74
2018-03-15T22:33:49.103Z,87.97
2018-03-15T22:36:54.814Z,88.34
2018-03-15T22:40:00.576Z,87.84
2018-03-15T22:43:06.466Z,87.54
2018-03-15T22:46:13.203Z,87.48
2018-03-15T22:49:19.074Z,87.70
2018-03-15T22:52:24.642Z,87.44
2018-03-15T22:55:30.378Z,87.13
2018-03-15T22:58:35.841Z,87.27
2018-03-15T23:01:41.511Z,87.63
2018-03-15T23:04:47.569Z,87.78
2018-03-15T23:07:52.903Z,87.32
2018-03-15T23:10:58.559Z,87.54
2018-03-15T23:14:04.126Z,87.82
2018-03-15T23:17:10.331Z,87.92
2018-03-15T23:20:15.626Z,87.86
2018-03-15T23:23:21.407Z,87.88
2018-03-15T23:26:27.168Z,87.83
2018-03-15T23:29:33.152Z,87.79
2018-03-15T23:32:39.235Z,87.68
2018-03-15T23:35:44.943Z,87.65
2018-03-15T23:38:50.290Z,87.32
2018-03-15T23:41:55.650Z,87.37
2018-03-15T23:45:01.328Z,87.46
2018-03-15T23:48:07.070Z,87.62
2018-03-15T23:51:12.603Z,87.61
2018-03-15T23:54:17.920Z,87.50
2018-03-15T23:57:23.451Z,87.51
